sensor_id;sensor_type;location;lat;lon;timestamp;pressure;altitude;pressure_sealevel;temperature;humidity
67517;BME280;54359;59.124;37.910;2022-12-07T00:01:41;100378.78;;;-6.20;76.28
67517;BME280;54359;59.124;37.910;2022-12-07T00:04:10;100366.16;;;-6.21;76.76
67517;BME280;54359;59.124;37.910;2022-12-07T00:06:41;100377.56;;;-6.15;77.37
67517;BME280;54359;59.124;37.910;2022-12-07T00:09:13;100370.06;;;-6.15;76.45
67517;BME280;54359;59.124;37.910;2022-12-07T00:11:40;100367.78;;;-6.12;77.67
67517;BME280;54359;59.124;37.910;2022-12-07T00:14:09;100369.56;;;-6.11;76.67
67517;BME280;54359;59.124;37.910;2022-12-07T00:16:36;100366.69;;;-6.15;77.12
67517;BME280;54359;59.124;37.910;2022-12-07T00:19:03;100378.69;;;-6.11;76.16
67517;BME280;54359;59.124;37.910;2022-12-07T00:21:34;100369.56;;;-6.11;76.34
67517;BME280;54359;59.124;37.910;2022-12-07T00:24:01;100378.06;;;-6.09;76.79
67517;BME280;54359;59.124;37.910;2022-12-07T00:26:29;100380.81;;;-6.05;77.38
67517;BME280;54359;59.124;37.910;2022-12-07T00:29:02;100376.28;;;-6.10;76.71
67517;BME280;54359;59.124;37.910;2022-12-07T00:31:32;100384.81;;;-6.08;76.65
67517;BME280;54359;59.124;37.910;2022-12-07T00:33:59;100388.59;;;-6.02;76.68
67517;BME280;54359;59.124;37.910;2022-12-07T00:36:26;100373.44;;;-6.04;77.13
67517;BME280;54359;59.124;37.910;2022-12-07T00:38:52;100390.31;;;-6.01;77.14
67517;BME280;54359;59.124;37.910;2022-12-07T00:41:21;100383.56;;;-6.02;76.93
67517;BME280;54359;59.124;37.910;2022-12-07T00:43:47;100385.72;;;-5.97;76.40
67517;BME280;54359;59.124;37.910;2022-12-07T00:46:14;100383.53;;;-5.92;76.37
67517;BME280;54359;59.124;37.910;2022-12-07T00:48:41;100391.91;;;-5.92;76.79
67517;BME280;54359;59.124;37.910;2022-12-07T00:51:07;100382.19;;;-5.89;76.44
67517;BME280;54359;59.124;37.910;2022-12-07T00:53:34;100382.91;;;-5.90;77.16
67517;BME280;54359;59.124;37.910;2022-12-07T00:56:08;100372.66;;;-5.93;76.34
67517;BME280;54359;59.124;37.910;2022-12-07T00:58:36;100371.16;;;-5.91;76.68
67517;BME280;54359;59.124;37.910;2022-12-07T01:01:04;100386.06;;;-5.82;76.27
67517;BME280;54359;59.124;37.910;2022-12-07T01:03:30;100384.53;;;-5.80;77.35
67517;BME280;54359;59.124;37.910;2022-12-07T01:05:57;100373.78;;;-5.79;76.93
67517;BME280;54359;59.124;37.910;2022-12-07T01:08:24;100379.53;;;-5.80;76.35
67517;BME280;54359;59.124;37.910;2022-12-07T01:10:59;100381.19;;;-5.80;76.39
67517;BME280;54359;59.124;37.910;2022-12-07T01:13:25;100380.91;;;-5.83;77.15
67517;BME280;54359;59.124;37.910;2022-12-07T01:15:51;100380.28;;;-5.81;77.01
67517;BME280;54359;59.124;37.910;2022-12-07T01:18:17;100381.03;;;-5.82;76.88
67517;BME280;54359;59.124;37.910;2022-12-07T01:20:43;100388.41;;;-5.83;76.34
67517;BME280;54359;59.124;37.910;2022-12-07T01:23:09;100395.78;;;-5.85;77.05
67517;BME280;54359;59.124;37.910;2022-12-07T01:25:34;100396.56;;;-5.86;77.09
67517;BME280;54359;59.124;37.910;2022-12-07T01:28:00;100395.06;;;-5.94;76.35
67517;BME280;54359;59.124;37.910;2022-12-07T01:30:26;100397.22;;;-5.99;76.76
67517;BME280;54359;59.124;37.910;2022-12-07T01:32:52;100380.94;;;-6.14;76.74
67517;BME280;54359;59.124;37.910;2022-12-07T01:35:18;100386.06;;;-6.23;76.23
67517;BME280;54359;59.124;37.910;2022-12-07T01:37:44;100382.28;;;-6.28;76.71
67517;BME280;54359;59.124;37.910;2022-12-07T01:40:12;100393.19;;;-6.28;76.45
67517;BME280;54359;59.124;37.910;2022-12-07T01:42:37;100391.28;;;-6.30;75.64
67517;BME280;54359;59.124;37.910;2022-12-07T01:47:52;100395.88;;;-6.45;76.15
67517;BME280;54359;59.124;37.910;2022-12-07T01:50:19;100402.66;;;-6.44;76.60
67517;BME280;54359;59.124;37.910;2022-12-07T01:52:48;100407.75;;;-6.42;77.24
67517;BME280;54359;59.124;37.910;2022-12-07T01:55:17;100416.16;;;-6.42;77.16
67517;BME280;54359;59.124;37.910;2022-12-07T01:57:47;100417.03;;;-6.41;76.84
67517;BME280;54359;59.124;37.910;2022-12-07T02:00:15;100409.53;;;-6.41;77.22
67517;BME280;54359;59.124;37.910;2022-12-07T02:02:54;100404.38;;;-6.43;77.22
67517;BME280;54359;59.124;37.910;2022-12-07T02:05:22;100422.75;;;-6.42;76.39
67517;BME280;54359;59.124;37.910;2022-12-07T02:07:49;100412.00;;;-6.52;76.04
67517;BME280;54359;59.124;37.910;2022-12-07T02:10:17;100411.50;;;-6.48;75.98
67517;BME280;54359;59.124;37.910;2022-12-07T02:12:49;100415.34;;;-6.51;76.80
67517;BME280;54359;59.124;37.910;2022-12-07T02:15:16;100407.47;;;-6.56;76.41
67517;BME280;54359;59.124;37.910;2022-12-07T02:18:07;100419.72;;;-6.49;76.00
67517;BME280;54359;59.124;37.910;2022-12-07T02:26:02;100407.03;;;-6.41;76.45
67517;BME280;54359;59.124;37.910;2022-12-07T02:31:17;100391.50;;;-6.48;77.24
67517;BME280;54359;59.124;37.910;2022-12-07T02:34:05;100412.03;;;-6.41;75.87
67517;BME280;54359;59.124;37.910;2022-12-07T02:36:38;100401.63;;;-6.46;76.14
67517;BME280;54359;59.124;37.910;2022-12-07T02:39:31;100407.50;;;-6.45;76.06
67517;BME280;54359;59.124;37.910;2022-12-07T02:42:10;100395.13;;;-6.54;77.04
67517;BME280;54359;59.124;37.910;2022-12-07T02:44:38;100396.13;;;-6.52;75.87
67517;BME280;54359;59.124;37.910;2022-12-07T02:47:07;100386.97;;;-6.62;77.08
67517;BME280;54359;59.124;37.910;2022-12-07T02:49:36;100398.97;;;-6.58;77.00
67517;BME280;54359;59.124;37.910;2022-12-07T02:52:03;100395.59;;;-6.58;75.75
67517;BME280;54359;59.124;37.910;2022-12-07T02:54:29;100393.59;;;-6.62;75.68
67517;BME280;54359;59.124;37.910;2022-12-07T02:57:26;100392.69;;;-6.63;76.00
67517;BME280;54359;59.124;37.910;2022-12-07T03:00:08;100400.94;;;-6.64;77.13
67517;BME280;54359;59.124;37.910;2022-12-07T03:03:11;100411.81;;;-6.63;76.80
67517;BME280;54359;59.124;37.910;2022-12-07T03:06:22;100404.81;;;-6.68;76.31
67517;BME280;54359;59.124;37.910;2022-12-07T03:08:53;100404.56;;;-6.71;76.52
67517;BME280;54359;59.124;37.910;2022-12-07T03:11:25;100396.06;;;-6.73;76.31
67517;BME280;54359;59.124;37.910;2022-12-07T03:17:32;100407.66;;;-6.73;76.75
67517;BME280;54359;59.124;37.910;2022-12-07T03:19:34;100397.41;;;-6.76;75.63
67517;BME280;54359;59.124;37.910;2022-12-07T03:22:03;100388.63;;;-6.81;76.99
67517;BME280;54359;59.124;37.910;2022-12-07T03:24:35;100407.53;;;-6.75;76.83
67517;BME280;54359;59.124;37.910;2022-12-07T03:27:33;100381.88;;;-6.82;76.67
67517;BME280;54359;59.124;37.910;2022-12-07T03:30:03;100396.06;;;-6.73;76.53
67517;BME280;54359;59.124;37.910;2022-12-07T03:32:37;100399.13;;;-6.75;76.23
67517;BME280;54359;59.124;37.910;2022-12-07T03:37:38;100391.28;;;-6.70;75.89
67517;BME280;54359;59.124;37.910;2022-12-07T03:40:21;100388.94;;;-6.68;75.62
67517;BME280;54359;59.124;37.910;2022-12-07T03:42:49;100374.28;;;-6.74;76.54
67517;BME280;54359;59.124;37.910;2022-12-07T03:45:16;100379.81;;;-6.68;76.95
67517;BME280;54359;59.124;37.910;2022-12-07T03:47:54;100396.19;;;-6.61;75.63
67517;BME280;54359;59.124;37.910;2022-12-07T03:50:31;100387.47;;;-6.56;76.17
67517;BME280;54359;59.124;37.910;2022-12-07T03:53:08;100400.84;;;-6.55;76.56
67517;BME280;54359;59.124;37.910;2022-12-07T03:55:37;100405.63;;;-6.48;76.31
67517;BME280;54359;59.124;37.910;2022-12-07T03:58:12;100402.38;;;-6.47;76.04
67517;BME280;54359;59.124;37.910;2022-12-07T04:00:41;100398.88;;;-6.49;76.39
67517;BME280;54359;59.124;37.910;2022-12-07T04:03:08;100388.34;;;-6.55;75.81
67517;BME280;54359;59.124;37.910;2022-12-07T04:05:34;100407.72;;;-6.53;75.90
67517;BME280;54359;59.124;37.910;2022-12-07T04:08:00;100410.13;;;-6.54;76.50
67517;BME280;54359;59.124;37.910;2022-12-07T04:10:26;100418.34;;;-6.55;75.10
67517;BME280;54359;59.124;37.910;2022-12-07T04:12:52;100411.34;;;-6.59;75.24
67517;BME280;54359;59.124;37.910;2022-12-07T04:15:18;100402.16;;;-6.69;75.12
67517;BME280;54359;59.124;37.910;2022-12-07T04:17:44;100417.16;;;-6.69;75.51
67517;BME280;54359;59.124;37.910;2022-12-07T04:20:10;100422.56;;;-6.64;75.57
67517;BME280;54359;59.124;37.910;2022-12-07T04:22:36;100423.44;;;-6.64;75.50
67517;BME280;54359;59.124;37.910;2022-12-07T04:25:02;100430.81;;;-6.65;76.04
67517;BME280;54359;59.124;37.910;2022-12-07T04:27:28;100413.53;;;-6.73;75.20
67517;BME280;54359;59.124;37.910;2022-12-07T04:29:54;100432.28;;;-6.68;76.42
67517;BME280;54359;59.124;37.910;2022-12-07T04:32:22;100427.16;;;-6.69;75.07
67517;BME280;54359;59.124;37.910;2022-12-07T04:34:48;100415.28;;;-6.72;76.23
67517;BME280;54359;59.124;37.910;2022-12-07T04:37:13;100431.44;;;-6.68;76.31
67517;BME280;54359;59.124;37.910;2022-12-07T04:39:39;100420.56;;;-6.69;76.74
67517;BME280;54359;59.124;37.910;2022-12-07T04:42:05;100422.94;;;-6.70;76.50
67517;BME280;54359;59.124;37.910;2022-12-07T04:44:31;100420.44;;;-6.70;76.50
67517;BME280;54359;59.124;37.910;2022-12-07T04:46:57;100433.41;;;-6.74;75.21
67517;BME280;54359;59.124;37.910;2022-12-07T04:49:24;100425.75;;;-6.76;76.47
67517;BME280;54359;59.124;37.910;2022-12-07T04:51:50;100431.38;;;-6.78;75.54
67517;BME280;54359;59.124;37.910;2022-12-07T04:54:17;100438.59;;;-6.81;76.47
67517;BME280;54359;59.124;37.910;2022-12-07T04:56:43;100431.06;;;-6.92;76.32
67517;BME280;54359;59.124;37.910;2022-12-07T04:59:11;100431.06;;;-6.92;74.89
67517;BME280;54359;59.124;37.910;2022-12-07T05:01:37;100451.31;;;-6.89;76.02
67517;BME280;54359;59.124;37.910;2022-12-07T05:04:03;100446.81;;;-6.93;75.13
67517;BME280;54359;59.124;37.910;2022-12-07T05:06:29;100454.44;;;-6.91;75.56
67517;BME280;54359;59.124;37.910;2022-12-07T05:08:55;100451.66;;;-6.94;76.56
67517;BME280;54359;59.124;37.910;2022-12-07T05:11:21;100453.28;;;-6.95;75.36
67517;BME280;54359;59.124;37.910;2022-12-07T05:14:14;100458.16;;;-6.96;75.39
67517;BME280;54359;59.124;37.910;2022-12-07T05:16:41;100447.47;;;-7.04;76.32
67517;BME280;54359;59.124;37.910;2022-12-07T05:19:07;100476.50;;;-6.96;76.29
67517;BME280;54359;59.124;37.910;2022-12-07T05:21:35;100458.00;;;-6.98;75.43
67517;BME280;54359;59.124;37.910;2022-12-07T05:24:01;100463.16;;;-6.96;76.09
67517;BME280;54359;59.124;37.910;2022-12-07T05:26:27;100460.88;;;-7.03;75.40
67517;BME280;54359;59.124;37.910;2022-12-07T05:28:54;100467.91;;;-6.99;75.11
67517;BME280;54359;59.124;37.910;2022-12-07T05:31:22;100461.59;;;-7.04;76.66
67517;BME280;54359;59.124;37.910;2022-12-07T05:33:49;100468.75;;;-6.99;74.94
67517;BME280;54359;59.124;37.910;2022-12-07T05:36:15;100453.56;;;-7.11;75.56
67517;BME280;54359;59.124;37.910;2022-12-07T05:38:41;100464.97;;;-7.04;75.08
67517;BME280;54359;59.124;37.910;2022-12-07T05:41:08;100471.19;;;-7.09;76.42
67517;BME280;54359;59.124;37.910;2022-12-07T05:43:55;100465.44;;;-7.08;75.39
67517;BME280;54359;59.124;37.910;2022-12-07T05:46:21;100454.66;;;-7.17;75.16
67517;BME280;54359;59.124;37.910;2022-12-07T05:48:47;100476.91;;;-7.10;75.79
67517;BME280;54359;59.124;37.910;2022-12-07T05:51:13;100478.53;;;-7.11;76.25
67517;BME280;54359;59.124;37.910;2022-12-07T05:53:38;100464.25;;;-7.22;75.92
67517;BME280;54359;59.124;37.910;2022-12-07T05:56:05;100472.13;;;-7.17;75.02
67517;BME280;54359;59.124;37.910;2022-12-07T05:58:31;100478.00;;;-7.17;76.04
67517;BME280;54359;59.124;37.910;2022-12-07T06:01:15;100486.97;;;-7.19;75.11
67517;BME280;54359;59.124;37.910;2022-12-07T06:03:41;100478.94;;;-7.25;76.44
67517;BME280;54359;59.124;37.910;2022-12-07T06:06:07;100482.38;;;-7.33;75.55
67517;BME280;54359;59.124;37.910;2022-12-07T06:08:33;100489.25;;;-7.31;75.33
67517;BME280;54359;59.124;37.910;2022-12-07T06:10:58;100479.09;;;-7.42;75.27
67517;BME280;54359;59.124;37.910;2022-12-07T06:13:43;100482.91;;;-7.46;76.05
67517;BME280;54359;59.124;37.910;2022-12-07T06:16:09;100499.06;;;-7.42;75.50
67517;BME280;54359;59.124;37.910;2022-12-07T06:18:34;100494.53;;;-7.46;75.74
67517;BME280;54359;59.124;37.910;2022-12-07T06:21:00;100502.28;;;-7.43;75.88
67517;BME280;54359;59.124;37.910;2022-12-07T06:23:26;100507.66;;;-7.39;75.34
67517;BME280;54359;59.124;37.910;2022-12-07T06:25:52;100487.91;;;-7.46;75.88
67517;BME280;54359;59.124;37.910;2022-12-07T06:28:18;100488.91;;;-7.44;76.09
67517;BME280;54359;59.124;37.910;2022-12-07T06:30:44;100496.81;;;-7.39;75.97
67517;BME280;54359;59.124;37.910;2022-12-07T06:33:09;100507.97;;;-7.36;76.03
67517;BME280;54359;59.124;37.910;2022-12-07T06:35:35;100505.31;;;-7.37;76.63
67517;BME280;54359;59.124;37.910;2022-12-07T06:38:01;100499.16;;;-7.41;76.58
67517;BME280;54359;59.124;37.910;2022-12-07T06:40:27;100502.09;;;-7.36;76.28
67517;BME280;54359;59.124;37.910;2022-12-07T06:42:53;100495.19;;;-7.39;75.96
67517;BME280;54359;59.124;37.910;2022-12-07T06:45:20;100498.16;;;-7.43;76.22
67517;BME280;54359;59.124;37.910;2022-12-07T06:47:46;100511.78;;;-7.39;76.10
67517;BME280;54359;59.124;37.910;2022-12-07T06:50:11;100513.13;;;-7.43;76.26
67517;BME280;54359;59.124;37.910;2022-12-07T06:52:37;100508.75;;;-7.45;76.50
67517;BME280;54359;59.124;37.910;2022-12-07T06:55:03;100514.50;;;-7.46;75.73
67517;BME280;54359;59.124;37.910;2022-12-07T06:57:29;100513.59;;;-7.47;76.54
67517;BME280;54359;59.124;37.910;2022-12-07T06:59:55;100520.50;;;-7.44;76.32
67517;BME280;54359;59.124;37.910;2022-12-07T07:02:21;100506.16;;;-7.56;75.56
67517;BME280;54359;59.124;37.910;2022-12-07T07:04:47;100511.53;;;-7.42;76.03
67517;BME280;54359;59.124;37.910;2022-12-07T07:07:13;100515.91;;;-7.40;75.55
67517;BME280;54359;59.124;37.910;2022-12-07T07:09:39;100498.44;;;-7.40;76.03
67517;BME280;54359;59.124;37.910;2022-12-07T07:12:04;100512.97;;;-7.36;75.20
67517;BME280;54359;59.124;37.910;2022-12-07T07:14:30;100506.94;;;-7.38;76.35
67517;BME280;54359;59.124;37.910;2022-12-07T07:16:57;100504.16;;;-7.41;76.20
67517;BME280;54359;59.124;37.910;2022-12-07T07:19:23;100518.22;;;-7.33;75.26
67517;BME280;54359;59.124;37.910;2022-12-07T07:21:49;100517.66;;;-7.39;76.20
67517;BME280;54359;59.124;37.910;2022-12-07T07:24:14;100517.09;;;-7.36;75.79
67517;BME280;54359;59.124;37.910;2022-12-07T07:26:40;100512.09;;;-7.36;75.92
67517;BME280;54359;59.124;37.910;2022-12-07T07:29:06;100528.34;;;-7.31;75.03
67517;BME280;54359;59.124;37.910;2022-12-07T07:31:32;100519.59;;;-7.36;76.08
67517;BME280;54359;59.124;37.910;2022-12-07T07:34:01;100524.69;;;-7.35;75.36
67517;BME280;54359;59.124;37.910;2022-12-07T07:36:26;100524.09;;;-7.32;75.53
67517;BME280;54359;59.124;37.910;2022-12-07T07:38:52;100505.94;;;-7.40;75.64
67517;BME280;54359;59.124;37.910;2022-12-07T07:41:18;100538.00;;;-7.25;76.53
67517;BME280;54359;59.124;37.910;2022-12-07T07:43:45;100519.84;;;-7.33;75.72
67517;BME280;54359;59.124;37.910;2022-12-07T07:46:11;100520.72;;;-7.33;75.86
67517;BME280;54359;59.124;37.910;2022-12-07T07:48:37;100533.63;;;-7.28;74.65
67517;BME280;54359;59.124;37.910;2022-12-07T07:51:07;100509.44;;;-7.38;75.02
67517;BME280;54359;59.124;37.910;2022-12-07T07:53:34;100510.78;;;-7.41;75.07
67517;BME280;54359;59.124;37.910;2022-12-07T07:56:02;100502.13;;;-7.45;74.79
67517;BME280;54359;59.124;37.910;2022-12-07T07:58:28;100527.19;;;-7.35;75.24
67517;BME280;54359;59.124;37.910;2022-12-07T08:00:55;100509.31;;;-7.39;75.13
67517;BME280;54359;59.124;37.910;2022-12-07T08:03:23;100537.00;;;-7.28;75.88
67517;BME280;54359;59.124;37.910;2022-12-07T08:05:49;100533.34;;;-7.31;75.47
67517;BME280;54359;59.124;37.910;2022-12-07T08:08:14;100523.66;;;-7.28;74.78
67517;BME280;54359;59.124;37.910;2022-12-07T08:10:40;100542.88;;;-7.27;74.39
67517;BME280;54359;59.124;37.910;2022-12-07T08:13:06;100492.28;;;-7.43;75.48
67517;BME280;54359;59.124;37.910;2022-12-07T08:15:44;100517.94;;;-7.36;74.55
67517;BME280;54359;59.124;37.910;2022-12-07T08:18:11;100527.47;;;-7.32;75.19
67517;BME280;54359;59.124;37.910;2022-12-07T08:20:38;100525.69;;;-7.33;75.26
67517;BME280;54359;59.124;37.910;2022-12-07T08:23:07;100521.16;;;-7.37;74.91
67517;BME280;54359;59.124;37.910;2022-12-07T08:25:34;100528.28;;;-7.22;74.40
67517;BME280;54359;59.124;37.910;2022-12-07T08:28:03;100527.28;;;-7.24;75.59
67517;BME280;54359;59.124;37.910;2022-12-07T08:30:32;100528.16;;;-7.24;74.79
67517;BME280;54359;59.124;37.910;2022-12-07T08:32:59;100530.19;;;-7.20;74.89
67517;BME280;54359;59.124;37.910;2022-12-07T08:35:26;100515.06;;;-7.21;74.67
67517;BME280;54359;59.124;37.910;2022-12-07T08:37:56;100528.81;;;-7.16;75.23
67517;BME280;54359;59.124;37.910;2022-12-07T08:40:25;100519.06;;;-7.23;75.29
67517;BME280;54359;59.124;37.910;2022-12-07T08:42:54;100526.06;;;-7.19;74.76
67517;BME280;54359;59.124;37.910;2022-12-07T08:45:45;100524.13;;;-7.13;75.82
67517;BME280;54359;59.124;37.910;2022-12-07T08:48:13;100520.22;;;-7.20;75.81
67517;BME280;54359;59.124;37.910;2022-12-07T08:50:48;100517.09;;;-7.17;74.85
67517;BME280;54359;59.124;37.910;2022-12-07T08:53:22;100525.88;;;-7.12;74.29
67517;BME280;54359;59.124;37.910;2022-12-07T08:55:53;100524.66;;;-7.07;74.34
67517;BME280;54359;59.124;37.910;2022-12-07T08:58:22;100520.28;;;-7.10;75.51
67517;BME280;54359;59.124;37.910;2022-12-07T09:00:49;100522.31;;;-7.05;75.86
67517;BME280;54359;59.124;37.910;2022-12-07T09:03:15;100520.53;;;-7.06;75.05
67517;BME280;54359;59.124;37.910;2022-12-07T09:05:42;100513.91;;;-7.06;74.52
67517;BME280;54359;59.124;37.910;2022-12-07T09:08:08;100521.78;;;-7.12;74.94
67517;BME280;54359;59.124;37.910;2022-12-07T09:10:35;100515.28;;;-7.10;75.43
67517;BME280;54359;59.124;37.910;2022-12-07T09:13:03;100519.19;;;-7.03;75.22
67517;BME280;54359;59.124;37.910;2022-12-07T09:15:31;100533.41;;;-6.93;74.38
67517;BME280;54359;59.124;37.910;2022-12-07T09:17:58;100522.94;;;-6.89;74.39
67517;BME280;54359;59.124;37.910;2022-12-07T09:20:25;100515.16;;;-6.92;75.03
67517;BME280;54359;59.124;37.910;2022-12-07T09:22:51;100524.47;;;-6.81;74.63
67517;BME280;54359;59.124;37.910;2022-12-07T09:25:17;100524.34;;;-6.82;75.16
67517;BME280;54359;59.124;37.910;2022-12-07T09:27:46;100517.22;;;-6.78;74.41
67517;BME280;54359;59.124;37.910;2022-12-07T09:30:13;100518.72;;;-6.80;75.08
67517;BME280;54359;59.124;37.910;2022-12-07T09:32:39;100510.97;;;-6.83;75.42
67517;BME280;54359;59.124;37.910;2022-12-07T09:35:12;100505.06;;;-6.83;74.58
67517;BME280;54359;59.124;37.910;2022-12-07T09:37:40;100502.72;;;-6.82;74.54
67517;BME280;54359;59.124;37.910;2022-12-07T09:40:06;100504.75;;;-6.78;75.61
67517;BME280;54359;59.124;37.910;2022-12-07T09:42:42;100508.09;;;-6.77;74.27
67517;BME280;54359;59.124;37.910;2022-12-07T09:47:51;100510.75;;;-6.76;74.01
67517;BME280;54359;59.124;37.910;2022-12-07T09:50:21;100509.00;;;-6.77;74.08
67517;BME280;54359;59.124;37.910;2022-12-07T09:52:52;100500.28;;;-6.72;75.60
67517;BME280;54359;59.124;37.910;2022-12-07T09:55:25;100499.06;;;-6.66;75.60
67517;BME280;54359;59.124;37.910;2022-12-07T09:57:57;100490.66;;;-6.67;74.61
67517;BME280;54359;59.124;37.910;2022-12-07T10:00:24;100481.44;;;-6.68;74.43
67517;BME280;54359;59.124;37.910;2022-12-07T10:03:02;100457.88;;;-6.80;74.04
67517;BME280;54359;59.124;37.910;2022-12-07T10:05:35;100491.81;;;-6.63;74.63
67517;BME280;54359;59.124;37.910;2022-12-07T10:08:03;100480.31;;;-6.61;73.90
67517;BME280;54359;59.124;37.910;2022-12-07T10:10:31;100481.34;;;-6.59;73.95
67517;BME280;54359;59.124;37.910;2022-12-07T10:13:15;100485.19;;;-6.63;74.17
67517;BME280;54359;59.124;37.910;2022-12-07T10:15:58;100473.59;;;-6.62;73.88
67517;BME280;54359;59.124;37.910;2022-12-07T10:18:37;100471.44;;;-6.68;73.87
67517;BME280;54359;59.124;37.910;2022-12-07T10:21:13;100456.63;;;-6.75;74.06
67517;BME280;54359;59.124;37.910;2022-12-07T10:24:01;100463.78;;;-6.70;74.63
67517;BME280;54359;59.124;37.910;2022-12-07T10:29:30;100469.78;;;-6.68;74.00
67517;BME280;54359;59.124;37.910;2022-12-07T10:34:42;100473.66;;;-6.71;73.60
67517;BME280;54359;59.124;37.910;2022-12-07T10:37:19;100460.69;;;-6.86;73.80
67517;BME280;54359;59.124;37.910;2022-12-07T10:39:50;100468.25;;;-6.76;74.94
67517;BME280;54359;59.124;37.910;2022-12-07T10:42:40;100459.84;;;-6.86;73.65
67517;BME280;54359;59.124;37.910;2022-12-07T10:46:22;100463.47;;;-6.83;74.15
67517;BME280;54359;59.124;37.910;2022-12-07T10:51:45;100443.34;;;-6.16;74.75
67517;BME280;54359;59.124;37.910;2022-12-07T11:05:52;100432.69;;;-4.68;73.85
67517;BME280;54359;59.124;37.910;2022-12-07T11:14:20;100443.47;;;-3.93;74.03
67517;BME280;54359;59.124;37.910;2022-12-07T11:17:25;100446.28;;;-3.66;72.31
67517;BME280;54359;59.124;37.910;2022-12-07T11:20:28;100446.91;;;-3.47;73.50
67517;BME280;54359;59.124;37.910;2022-12-07T11:26:47;100408.00;;;-3.52;72.69
67517;BME280;54359;59.124;37.910;2022-12-07T11:29:43;100440.19;;;-3.24;73.31
67517;BME280;54359;59.124;37.910;2022-12-07T11:34:59;100430.22;;;-3.11;73.21
67517;BME280;54359;59.124;37.910;2022-12-07T11:37:35;100413.94;;;-3.16;73.17
67517;BME280;54359;59.124;37.910;2022-12-07T11:43:03;100417.44;;;-2.90;72.94
67517;BME280;54359;59.124;37.910;2022-12-07T11:45:34;100408.59;;;-2.97;72.58
67517;BME280;54359;59.124;37.910;2022-12-07T11:48:22;100423.97;;;-3.04;72.79
67517;BME280;54359;59.124;37.910;2022-12-07T11:50:56;100408.81;;;-3.17;72.64
67517;BME280;54359;59.124;37.910;2022-12-07T11:53:42;100424.31;;;-3.11;72.11
67517;BME280;54359;59.124;37.910;2022-12-07T11:56:15;100421.28;;;-3.07;72.78
67517;BME280;54359;59.124;37.910;2022-12-07T11:58:53;100423.66;;;-3.09;72.75
67517;BME280;54359;59.124;37.910;2022-12-07T12:02:00;100420.41;;;-3.08;72.57
67517;BME280;54359;59.124;37.910;2022-12-07T12:04:51;100415.69;;;-3.15;72.56
67517;BME280;54359;59.124;37.910;2022-12-07T12:07:24;100388.91;;;-3.38;72.12
67517;BME280;54359;59.124;37.910;2022-12-07T12:09:55;100418.81;;;-3.41;72.92
67517;BME280;54359;59.124;37.910;2022-12-07T12:12:40;100428.09;;;-3.52;72.25
67517;BME280;54359;59.124;37.910;2022-12-07T12:15:38;100412.53;;;-3.70;72.97
67517;BME280;54359;59.124;37.910;2022-12-07T12:21:07;100416.16;;;-4.00;72.30
67517;BME280;54359;59.124;37.910;2022-12-07T12:26:05;100417.41;;;-4.39;71.92
67517;BME280;54359;59.124;37.910;2022-12-07T12:33:51;100427.47;;;-5.34;72.18
67517;BME280;54359;59.124;37.910;2022-12-07T12:44:08;100393.09;;;-6.58;72.91
67517;BME280;54359;59.124;37.910;2022-12-07T12:46:58;100400.03;;;-6.75;72.26
67517;BME280;54359;59.124;37.910;2022-12-07T12:54:31;100405.47;;;-6.89;73.49
67517;BME280;54359;59.124;37.910;2022-12-07T12:57:21;100392.47;;;-6.95;73.21
67517;BME280;54359;59.124;37.910;2022-12-07T13:05:02;100389.69;;;-6.98;72.52
67517;BME280;54359;59.124;37.910;2022-12-07T13:07:52;100379.16;;;-7.04;73.39
67517;BME280;54359;59.124;37.910;2022-12-07T13:13:04;100397.44;;;-6.95;73.32
67517;BME280;54359;59.124;37.910;2022-12-07T13:18:24;100382.66;;;-7.02;72.83
67517;BME280;54359;59.124;37.910;2022-12-07T13:21:02;100385.44;;;-6.99;72.94
67517;BME280;54359;59.124;37.910;2022-12-07T13:23:39;100383.19;;;-6.96;72.01
67517;BME280;54359;59.124;37.910;2022-12-07T13:26:35;100380.22;;;-6.92;72.31
67517;BME280;54359;59.124;37.910;2022-12-07T13:29:16;100385.34;;;-6.91;73.50
67517;BME280;54359;59.124;37.910;2022-12-07T13:31:52;100389.88;;;-6.86;73.09
67517;BME280;54359;59.124;37.910;2022-12-07T13:34:36;100393.22;;;-6.86;71.84
67517;BME280;54359;59.124;37.910;2022-12-07T13:37:12;100389.25;;;-6.84;73.01
67517;BME280;54359;59.124;37.910;2022-12-07T13:39:48;100379.38;;;-6.82;72.82
67517;BME280;54359;59.124;37.910;2022-12-07T13:42:34;100384.25;;;-6.84;72.22
67517;BME280;54359;59.124;37.910;2022-12-07T13:45:21;100391.78;;;-6.74;73.25
67517;BME280;54359;59.124;37.910;2022-12-07T13:47:54;100398.56;;;-6.73;71.89
67517;BME280;54359;59.124;37.910;2022-12-07T13:52:48;100388.94;;;-6.68;71.86
67517;BME280;54359;59.124;37.910;2022-12-07T13:55:16;100363.28;;;-6.76;72.98
67517;BME280;54359;59.124;37.910;2022-12-07T13:57:44;100378.19;;;-6.67;73.34
67517;BME280;54359;59.124;37.910;2022-12-07T14:00:30;100362.66;;;-6.73;73.07
67517;BME280;54359;59.124;37.910;2022-12-07T14:03:00;100348.41;;;-6.74;72.55
67517;BME280;54359;59.124;37.910;2022-12-07T14:07:58;100376.34;;;-6.59;72.54
67517;BME280;54359;59.124;37.910;2022-12-07T14:13:03;100382.81;;;-6.61;72.82
67517;BME280;54359;59.124;37.910;2022-12-07T14:15:34;100376.44;;;-6.68;73.23
67517;BME280;54359;59.124;37.910;2022-12-07T14:18:02;100376.81;;;-6.63;73.02
67517;BME280;54359;59.124;37.910;2022-12-07T14:20:35;100367.31;;;-6.68;71.84
67517;BME280;54359;59.124;37.910;2022-12-07T14:23:03;100359.28;;;-6.74;73.27
67517;BME280;54359;59.124;37.910;2022-12-07T14:25:48;100369.44;;;-6.72;73.39
67517;BME280;54359;59.124;37.910;2022-12-07T14:28:32;100361.88;;;-6.82;72.75
67517;BME280;54359;59.124;37.910;2022-12-07T14:30:59;100361.25;;;-6.80;72.97
67517;BME280;54359;59.124;37.910;2022-12-07T14:33:26;100359.38;;;-6.82;73.27
67517;BME280;54359;59.124;37.910;2022-12-07T14:35:52;100348.84;;;-6.99;73.09
67517;BME280;54359;59.124;37.910;2022-12-07T14:38:24;100371.97;;;-6.91;73.34